Time;durP1;ratioP1;P1;durP2;ratioP2;P2;SDS_P1;SDS_P2;PMS_P1;PMS_P2;Temp;Humidity;BMP_temperature;BMP_pressure;BME280_temperature;BME280_humidity;BME280_pressure;Samples;Min_cycle;Max_cycle;Signal;HPM_P1;HPM_P2
2023/09/17 00:01:12;;;;;;;5.03;3.28;;;14.90;99.90;14.50;100519.00;;;;4988600;27;113421;-67
2023/09/17 00:03:38;;;;;;;3.92;3.22;;;14.50;99.90;14.50;100514.00;;;;4988554;27;99593;-67
2023/09/17 00:06:05;;;;;;;4.03;2.90;;;14.40;99.90;14.40;100519.00;;;;4991392;28;92800;-67
2023/09/17 00:08:31;;;;;;;4.45;3.50;;;14.40;99.90;14.40;100522.00;;;;4992806;27;92844;-67
2023/09/17 00:10:56;;;;;;;5.68;3.53;;;14.40;99.90;14.30;100524.00;;;;4991426;27;123933;-68
2023/09/17 00:13:22;;;;;;;4.55;3.70;;;14.30;99.90;14.30;100518.00;;;;4991705;28;121183;-68
2023/09/17 00:15:49;;;;;;;4.45;3.53;;;14.20;99.90;14.20;100513.00;;;;4978804;28;109870;-68
2023/09/17 00:18:15;;;;;;;5.93;4.00;;;14.20;99.90;14.20;100522.00;;;;4971769;27;92810;-68
2023/09/17 00:20:41;;;;;;;4.82;3.80;;;14.20;99.90;14.20;100520.00;;;;4971862;28;94409;-67
2023/09/17 00:23:07;;;;;;;3.58;3.28;;;14.10;99.90;14.10;100528.00;;;;4993187;27;92791;-67
2023/09/17 00:25:32;;;;;;;4.43;3.97;;;14.10;99.90;14.10;100519.00;;;;4972412;27;106718;-67
2023/09/17 00:27:58;;;;;;;3.17;2.90;;;14.10;99.90;14.10;100525.00;;;;4989334;27;92097;-67
2023/09/17 00:30:25;;;;;;;6.82;4.43;;;14.10;99.90;14.10;100527.00;;;;4994402;28;93546;-67
2023/09/17 00:32:50;;;;;;;5.20;3.50;;;14.00;99.90;14.10;100520.00;;;;4967158;28;93108;-68
2023/09/17 00:35:16;;;;;;;5.90;3.53;;;14.10;99.90;14.10;100528.00;;;;4989809;27;99302;-68
2023/09/17 00:37:43;;;;;;;3.72;3.38;;;14.10;99.90;14.10;100520.00;;;;4989730;27;101957;-67
2023/09/17 00:40:12;;;;;;;6.20;3.47;;;14.10;99.90;14.10;100531.00;;;;4971949;27;93162;-68
2023/09/17 00:42:40;;;;;;;4.27;3.33;;;14.00;99.90;14.10;100518.00;;;;4991328;27;93088;-68
2023/09/17 00:45:06;;;;;;;4.43;2.85;;;14.00;99.90;14.00;100524.00;;;;4987932;27;92761;-66
2023/09/17 00:47:33;;;;;;;3.78;3.42;;;14.00;99.90;14.10;100522.00;;;;4991999;27;92807;-67
2023/09/17 00:50:00;;;;;;;3.37;3.03;;;14.00;99.90;14.10;100516.00;;;;4993653;27;94266;-68
2023/09/17 00:52:27;;;;;;;4.63;3.53;;;14.00;99.90;14.10;100516.00;;;;4958566;28;94434;-67
2023/09/17 00:54:54;;;;;;;4.67;3.67;;;14.10;99.90;14.10;100515.00;;;;4971840;27;92869;-68
2023/09/17 00:57:24;;;;;;;6.57;3.72;;;14.00;99.90;14.10;100506.00;;;;4967671;28;107565;-69
2023/09/17 00:59:50;;;;;;;3.47;3.17;;;14.00;99.90;14.10;100508.00;;;;4989583;27;93704;-69
2023/09/17 01:02:19;;;;;;;5.17;3.53;;;14.00;99.90;14.00;100508.00;;;;4989667;27;124233;-68
2023/09/17 01:04:50;;;;;;;3.97;2.40;;;14.00;99.90;14.00;100503.00;;;;4990224;27;92684;-69
2023/09/17 01:07:20;;;;;;;3.65;3.35;;;14.00;99.90;14.00;100501.00;;;;4969615;27;92957;-69
2023/09/17 01:09:48;;;;;;;3.73;3.30;;;14.00;99.90;14.00;100496.00;;;;4968846;28;94052;-68
2023/09/17 01:12:14;;;;;;;5.10;3.45;;;14.00;99.90;13.90;100496.00;;;;4989772;27;92893;-68
2023/09/17 01:14:40;;;;;;;4.85;3.72;;;13.90;99.90;13.90;100490.00;;;;4990252;27;92882;-68
2023/09/17 01:17:09;;;;;;;5.17;3.47;;;13.90;99.90;13.90;100496.00;;;;4989097;27;92310;-68
2023/09/17 01:19:36;;;;;;;3.73;3.27;;;13.90;99.90;13.80;100504.00;;;;4988063;27;93072;-68
2023/09/17 01:22:14;;;;;;;5.73;3.63;;;13.80;99.90;13.80;100498.00;;;;4971914;28;93901;-68
2023/09/17 01:25:04;;;;;;;3.63;3.23;;;13.80;99.90;13.80;100502.00;;;;4967344;28;93781;-68
2023/09/17 01:27:32;;;;;;;4.13;3.30;;;13.80;99.90;13.70;100508.00;;;;4973577;27;92699;-68
2023/09/17 01:29:58;;;;;;;6.53;4.97;;;13.80;99.90;13.70;100505.00;;;;4987930;27;92762;-69
2023/09/17 01:32:24;;;;;;;4.53;3.37;;;13.70;99.90;13.70;100497.00;;;;4986927;27;94404;-69
2023/09/17 01:34:52;;;;;;;8.60;4.50;;;13.70;99.90;13.70;100501.00;;;;4958825;28;93023;-68
2023/09/17 01:37:34;;;;;;;3.80;3.43;;;13.70;99.90;13.70;100496.00;;;;4988916;27;92659;-68
2023/09/17 01:40:06;;;;;;;4.77;3.67;;;13.70;99.90;13.70;100498.00;;;;4992359;27;93218;-68
2023/09/17 01:42:34;;;;;;;5.40;3.63;;;13.60;99.90;13.70;100499.00;;;;4977931;27;94655;-68
2023/09/17 01:45:03;;;;;;;3.73;3.20;;;13.60;99.90;13.60;100503.00;;;;4991684;27;94655;-67
2023/09/17 01:47:30;;;;;;;4.00;2.70;;;13.60;99.90;13.60;100503.00;;;;4972519;28;92868;-69
2023/09/17 01:49:57;;;;;;;4.97;3.33;;;13.60;99.90;13.60;100502.00;;;;4989940;27;123797;-66
2023/09/17 01:52:32;;;;;;;4.47;2.87;;;13.60;99.90;13.60;100507.00;;;;4974986;27;94437;-67
2023/09/17 01:54:59;;;;;;;4.17;2.97;;;13.60;99.90;13.60;100505.00;;;;4988793;27;94870;-68
2023/09/17 01:57:24;;;;;;;6.00;3.90;;;13.50;99.90;13.50;100508.00;;;;4971722;28;92805;-68
2023/09/17 01:59:50;;;;;;;5.87;3.40;;;13.60;99.90;13.50;100489.00;;;;4970303;27;121555;-68
2023/09/17 02:02:16;;;;;;;4.17;3.77;;;13.50;99.90;13.50;100490.00;;;;4970879;27;93140;-68
2023/09/17 02:04:41;;;;;;;6.03;3.60;;;13.50;99.90;13.50;100498.00;;;;4989621;27;109936;-68
2023/09/17 02:07:07;;;;;;;3.53;2.90;;;13.40;99.90;13.40;100510.00;;;;4992084;27;92393;-68
2023/09/17 02:09:33;;;;;;;5.73;2.97;;;14.10;99.90;13.40;100497.00;;;;4972601;28;93001;-67
2023/09/17 02:11:59;;;;;;;3.80;3.40;;;13.40;99.90;13.40;100507.00;;;;4973143;27;93280;-68
2023/09/17 02:14:24;;;;;;;3.87;2.97;;;13.40;99.90;13.40;100497.00;;;;4970749;28;110993;-68
2023/09/17 02:16:51;;;;;;;3.77;3.47;;;13.40;99.90;13.30;100502.00;;;;4988105;27;108202;-68
2023/09/17 02:19:16;;;;;;;4.27;3.73;;;13.30;99.90;13.30;100495.00;;;;4964668;28;94032;-68
2023/09/17 02:21:42;;;;;;;4.03;3.43;;;13.30;99.90;13.30;100503.00;;;;4993739;27;122982;-68
2023/09/17 02:24:08;;;;;;;5.17;3.63;;;13.30;99.90;13.30;100497.00;;;;4992555;27;102036;-68
2023/09/17 02:26:34;;;;;;;5.07;3.60;;;13.20;99.90;13.20;100500.00;;;;4995050;28;92740;-68
2023/09/17 02:29:00;;;;;;;6.00;3.43;;;13.20;99.90;13.30;100502.00;;;;4989271;28;121378;-68
2023/09/17 02:31:25;;;;;;;4.03;3.60;;;13.20;99.90;13.20;100510.00;;;;4974705;28;94804;-67
2023/09/17 02:33:51;;;;;;;8.00;3.17;;;13.20;99.90;13.20;100505.00;;;;4988987;27;93108;-67
2023/09/17 02:36:17;;;;;;;4.13;3.13;;;13.20;99.90;13.20;100505.00;;;;4990939;28;107642;-67
2023/09/17 02:38:42;;;;;;;5.10;4.37;;;13.20;99.90;13.20;100503.00;;;;4990086;27;94323;-67
2023/09/17 02:41:08;;;;;;;3.93;2.77;;;13.20;99.90;13.20;100501.00;;;;4990300;27;111218;-67
2023/09/17 02:43:36;;;;;;;4.77;3.60;;;13.20;99.90;13.20;100498.00;;;;4973953;28;110318;-67
2023/09/17 02:46:03;;;;;;;2.93;2.70;;;13.20;99.90;13.20;100501.00;;;;4993549;28;92693;-68
2023/09/17 02:48:32;;;;;;;3.07;2.57;;;13.10;99.90;13.10;100500.00;;;;4991971;28;93280;-69
2023/09/17 02:50:58;;;;;;;4.47;2.70;;;13.10;99.90;13.20;100494.00;;;;4992869;28;92793;-68
2023/09/17 02:53:24;;;;;;;2.93;2.47;;;13.10;99.90;13.10;100486.00;;;;4994876;27;92954;-69
2023/09/17 02:55:49;;;;;;;3.80;2.97;;;13.10;99.90;13.10;100489.00;;;;4973642;28;109991;-67
2023/09/17 02:58:15;;;;;;;4.27;2.90;;;13.10;99.90;13.10;100493.00;;;;4989729;27;118724;-68
2023/09/17 03:00:43;;;;;;;5.07;3.13;;;13.10;99.90;13.10;100498.00;;;;4971052;27;122374;-68
2023/09/17 03:03:08;;;;;;;4.03;3.17;;;13.10;99.90;13.10;100500.00;;;;4967600;27;94073;-67
2023/09/17 03:05:34;;;;;;;3.27;2.93;;;13.10;99.90;13.10;100506.00;;;;4994133;27;94011;-67
2023/09/17 03:08:00;;;;;;;3.70;3.03;;;13.10;99.90;13.00;100507.00;;;;4993516;27;96684;-67
2023/09/17 03:10:26;;;;;;;3.97;3.07;;;13.00;99.90;13.00;100511.00;;;;4970969;28;122315;-67
2023/09/17 03:12:52;;;;;;;3.40;3.10;;;13.00;99.90;13.00;100509.00;;;;4990488;27;111685;-67
2023/09/17 03:15:18;;;;;;;3.63;3.07;;;13.00;99.90;13.00;100508.00;;;;4993184;27;94094;-67
2023/09/17 03:17:44;;;;;;;4.13;3.30;;;13.70;99.90;12.90;100508.00;;;;4989506;27;121569;-68
2023/09/17 03:20:13;;;;;;;5.13;3.73;;;12.90;99.90;12.90;100513.00;;;;4977574;27;123133;-67
2023/09/17 03:22:45;;;;;;;2.80;2.60;;;12.90;99.90;12.90;100511.00;;;;4993460;27;92971;-69
2023/09/17 03:25:12;;;;;;;3.57;2.90;;;12.90;99.90;12.90;100506.00;;;;4994243;27;93436;-68
2023/09/17 03:27:41;;;;;;;2.80;2.60;;;12.90;99.90;12.90;100510.00;;;;4991245;27;93975;-68
2023/09/17 03:30:07;;;;;;;2.67;2.30;;;12.90;99.90;12.90;100514.00;;;;4989834;27;94589;-67
2023/09/17 03:32:33;;;;;;;4.17;3.17;;;12.80;99.90;12.90;100514.00;;;;4995848;27;101233;-67
2023/09/17 03:35:00;;;;;;;4.97;3.30;;;12.80;99.90;12.80;100515.00;;;;4995398;27;106135;-67
2023/09/17 03:37:26;;;;;;;5.43;3.03;;;12.80;99.90;12.80;100512.00;;;;4970334;28;104349;-67
2023/09/17 03:40:11;;;;;;;3.37;2.80;;;12.80;99.90;12.80;100518.00;;;;4971061;28;95498;-67
2023/09/17 03:42:39;;;;;;;7.43;3.63;;;12.80;99.90;12.70;100516.00;;;;4991272;27;94241;-67
2023/09/17 03:45:06;;;;;;;3.03;2.73;;;12.70;99.90;12.70;100521.00;;;;4991387;27;92451;-67
2023/09/17 03:47:36;;;;;;;4.20;2.93;;;12.70;99.90;12.70;100513.00;;;;4987903;27;94492;-68
2023/09/17 03:50:06;;;;;;;2.87;2.07;;;12.70;99.90;12.60;100511.00;;;;4988728;28;92708;-67
2023/09/17 03:52:34;;;;;;;4.53;3.10;;;12.70;99.90;12.60;100511.00;;;;4993713;27;93895;-67
2023/09/17 03:55:02;;;;;;;4.37;2.37;;;12.60;99.90;12.60;100515.00;;;;4991487;27;92961;-68
2023/09/17 03:57:29;;;;;;;3.50;2.63;;;12.60;99.90;12.60;100517.00;;;;4974558;28;95270;-68
2023/09/17 03:59:54;;;;;;;2.80;2.23;;;12.60;99.90;12.60;100517.00;;;;4990340;27;93415;-68
2023/09/17 04:02:20;;;;;;;3.87;2.53;;;12.60;99.90;12.60;100507.00;;;;4988630;27;92933;-67
2023/09/17 04:04:47;;;;;;;4.13;2.90;;;12.60;99.90;12.60;100520.00;;;;4987589;28;107741;-68
2023/09/17 04:07:13;;;;;;;2.80;2.37;;;12.60;99.90;12.50;100526.00;;;;4971584;28;93376;-68
2023/09/17 04:09:39;;;;;;;4.63;2.57;;;12.50;99.90;12.50;100519.00;;;;4971073;28;121380;-67
2023/09/17 04:12:06;;;;;;;2.70;2.40;;;12.50;99.90;12.50;100527.00;;;;4992704;27;110300;-66
2023/09/17 04:14:32;;;;;;;5.07;3.53;;;12.50;99.90;12.50;100520.00;;;;4986920;27;93033;-68
2023/09/17 04:17:05;;;;;;;2.77;2.57;;;12.50;99.90;12.50;100522.00;;;;4991678;28;94999;-68
2023/09/17 04:19:34;;;;;;;3.73;2.70;;;12.50;99.90;12.50;100528.00;;;;4986886;27;93556;-68
2023/09/17 04:22:00;;;;;;;3.27;2.30;;;12.50;99.90;12.40;100524.00;;;;4974560;28;92925;-67
2023/09/17 04:24:26;;;;;;;3.07;2.30;;;12.40;99.90;12.50;100522.00;;;;4990361;27;93018;-67
2023/09/17 04:26:53;;;;;;;4.47;3.20;;;12.40;99.90;12.40;100516.00;;;;4987071;28;93842;-67
2023/09/17 04:29:19;;;;;;;4.10;2.77;;;12.40;99.90;12.40;100524.00;;;;4986927;28;121233;-68
2023/09/17 04:31:46;;;;;;;2.77;2.57;;;12.40;99.90;12.40;100533.00;;;;4991414;27;92874;-67
2023/09/17 04:34:15;;;;;;;3.67;2.90;;;12.40;99.90;12.40;100535.00;;;;4990800;27;91940;-67
2023/09/17 04:36:41;;;;;;;4.30;2.53;;;12.40;99.90;12.40;100541.00;;;;4991330;27;121683;-68
2023/09/17 04:39:10;;;;;;;5.20;2.97;;;12.40;99.90;12.40;100539.00;;;;4973138;27;122210;-66
2023/09/17 04:41:36;;;;;;;3.87;2.70;;;12.40;99.90;12.40;100544.00;;;;4991714;28;93782;-67
2023/09/17 04:44:03;;;;;;;3.57;2.30;;;12.40;99.90;12.40;100535.00;;;;4990039;28;94592;-66
2023/09/17 04:46:29;;;;;;;3.47;2.77;;;12.40;99.90;12.40;100539.00;;;;4989175;28;93648;-68
2023/09/17 04:48:55;;;;;;;5.07;3.70;;;12.40;99.90;12.30;100543.00;;;;4988697;27;93211;-67
2023/09/17 04:51:21;;;;;;;3.10;2.63;;;12.40;99.90;12.30;100552.00;;;;4988534;27;110486;-67
2023/09/17 04:53:47;;;;;;;3.83;2.97;;;12.40;99.90;12.30;100541.00;;;;4990403;27;102181;-68
2023/09/17 04:56:13;;;;;;;3.00;2.67;;;12.30;99.90;12.30;100547.00;;;;4987806;28;122041;-66
2023/09/17 04:58:38;;;;;;;3.07;2.67;;;12.30;99.90;12.30;100548.00;;;;4990210;27;92978;-68
2023/09/17 05:01:06;;;;;;;4.90;2.77;;;12.30;99.90;12.40;100547.00;;;;4992753;27;92706;-67
2023/09/17 05:03:32;;;;;;;4.00;3.27;;;12.30;99.90;12.40;100552.00;;;;4989900;27;92825;-67
2023/09/17 05:05:58;;;;;;;4.23;2.67;;;12.30;99.90;12.40;100550.00;;;;4988641;28;95033;-67
2023/09/17 05:08:24;;;;;;;3.37;3.00;;;12.50;99.90;12.50;100554.00;;;;4970995;28;123690;-67
2023/09/17 05:10:50;;;;;;;5.33;3.27;;;12.40;99.90;12.60;100550.00;;;;4990418;27;92583;-68
2023/09/17 05:13:16;;;;;;;3.87;3.00;;;12.20;99.90;12.60;100546.00;;;;4988104;28;92725;-69
2023/09/17 05:15:41;;;;;;;3.10;2.43;;;12.60;99.90;12.70;100553.00;;;;4993767;27;93909;-67
2023/09/17 05:18:09;;;;;;;6.63;2.73;;;12.70;99.90;12.80;100554.00;;;;4993590;27;122348;-68
2023/09/17 05:20:41;;;;;;;2.70;2.50;;;12.80;99.90;12.90;100560.00;;;;4993137;27;93281;-68
2023/09/17 05:23:07;;;;;;;4.03;2.83;;;12.90;99.90;13.10;100571.00;;;;4991134;27;91806;-67
2023/09/17 05:25:34;;;;;;;2.03;1.90;;;13.00;99.90;13.20;100566.00;;;;4969208;28;117963;-67
2023/09/17 05:28:03;;;;;;;4.13;3.07;;;13.10;99.90;13.30;100564.00;;;;4950753;28;103867;-67
2023/09/17 05:30:38;;;;;;;2.40;2.20;;;13.30;99.90;13.40;100579.00;;;;4972804;28;93737;-66
2023/09/17 05:33:04;;;;;;;3.20;2.90;;;13.40;99.90;13.60;100574.00;;;;4948917;28;92920;-67
2023/09/17 05:35:34;;;;;;;2.67;2.47;;;13.50;99.90;13.60;100575.00;;;;4968670;28;93565;-67
2023/09/17 05:38:01;;;;;;;3.17;2.20;;;13.60;99.90;13.70;100578.00;;;;4973035;28;93680;-67
2023/09/17 05:40:27;;;;;;;2.90;2.60;;;13.60;99.90;13.70;100590.00;;;;4973573;28;110263;-67
2023/09/17 05:42:52;;;;;;;4.80;2.97;;;13.70;99.90;13.80;100581.00;;;;4970529;28;92809;-68
2023/09/17 05:45:18;;;;;;;2.93;2.43;;;13.80;99.90;13.90;100591.00;;;;4968959;28;122144;-67
2023/09/17 05:47:44;;;;;;;3.50;2.70;;;13.80;99.90;13.90;100601.00;;;;4970001;28;123446;-67
2023/09/17 05:50:11;;;;;;;3.20;2.23;;;13.90;99.90;14.00;100602.00;;;;4969287;28;92399;-67
2023/09/17 05:52:37;;;;;;;2.55;2.35;;;13.90;99.90;14.10;100608.00;;;;4971351;28;92943;-67
2023/09/17 05:55:04;;;;;;;3.53;2.63;;;14.00;99.90;14.10;100613.00;;;;4969704;28;95402;-67
2023/09/17 05:57:30;;;;;;;3.95;2.78;;;14.10;99.90;14.20;100623.00;;;;4967012;28;93433;-68
2023/09/17 05:59:56;;;;;;;3.17;2.87;;;14.20;99.90;14.30;100623.00;;;;4963511;28;92828;-67
2023/09/17 06:02:22;;;;;;;4.90;3.30;;;14.20;99.90;14.50;100629.00;;;;4965865;28;95352;-68
2023/09/17 06:04:52;;;;;;;3.17;2.43;;;14.40;99.90;14.60;100622.00;;;;4963920;28;122539;-67
2023/09/17 06:07:24;;;;;;;2.97;2.47;;;14.50;99.90;14.80;100619.00;;;;4965483;28;92856;-67
2023/09/17 06:09:50;;;;;;;5.55;2.63;;;14.70;99.90;15.00;100623.00;;;;4966186;28;92836;-67
2023/09/17 06:12:16;;;;;;;1.90;1.70;;;14.80;99.90;15.20;100624.00;;;;4968393;28;92196;-67
2023/09/17 06:14:42;;;;;;;2.13;1.93;;;15.30;99.90;15.40;100624.00;;;;4964418;28;121273;-67
2023/09/17 06:17:08;;;;;;;2.78;2.50;;;15.20;99.90;15.70;100616.00;;;;4968311;28;122992;-68
2023/09/17 06:19:34;;;;;;;2.67;2.25;;;15.50;99.90;16.00;100620.00;;;;4967665;28;93921;-67
2023/09/17 06:22:00;;;;;;;4.93;2.70;;;15.80;99.90;16.40;100610.00;;;;4968480;28;92995;-68
2023/09/17 06:24:26;;;;;;;3.00;1.95;;;16.10;99.90;16.70;100614.00;;;;4950804;28;95384;-67
2023/09/17 06:26:52;;;;;;;2.53;2.33;;;16.50;99.90;17.10;100621.00;;;;4950588;28;93142;-67
2023/09/17 06:29:18;;;;;;;2.13;1.73;;;16.80;99.90;17.50;100625.00;;;;4963802;28;101042;-67
2023/09/17 06:31:44;;;;;;;5.55;2.40;;;17.20;99.90;17.80;100625.00;;;;4964636;28;108385;-67
2023/09/17 06:34:10;;;;;;;2.72;2.08;;;17.60;99.90;18.20;100632.00;;;;4950208;28;99233;-67
2023/09/17 06:36:37;;;;;;;5.72;1.65;;;17.90;99.90;18.40;100620.00;;;;4967188;28;122430;-67
2023/09/17 06:39:05;;;;;;;4.18;1.92;;;18.20;99.90;18.80;100628.00;;;;4966856;28;93339;-66
2023/09/17 06:41:32;;;;;;;2.45;1.77;;;18.50;99.90;19.00;100622.00;;;;4971142;28;92865;-67
2023/09/17 06:43:57;;;;;;;1.75;1.65;;;18.80;99.90;19.30;100622.00;;;;4950689;28;93538;-67
2023/09/17 06:46:24;;;;;;;2.28;1.92;;;19.10;99.90;19.70;100619.00;;;;4972882;28;92819;-67
2023/09/17 06:48:50;;;;;;;2.22;1.88;;;19.40;99.90;20.00;100625.00;;;;4955193;28;93065;-67
2023/09/17 06:51:16;;;;;;;2.22;1.58;;;19.70;99.90;20.40;100623.00;;;;4951272;28;94749;-67
2023/09/17 06:53:42;;;;;;;1.52;1.42;;;20.10;99.90;20.70;100625.00;;;;4968730;28;115298;-66
2023/09/17 06:56:09;;;;;;;3.25;1.50;;;20.40;99.90;21.00;100623.00;;;;4935792;28;92520;-67
2023/09/17 06:58:35;;;;;;;1.42;1.33;;;20.70;99.90;21.30;100628.00;;;;4956209;28;101611;-67
2023/09/17 07:01:01;;;;;;;1.60;1.40;;;21.00;99.90;21.50;100629.00;;;;4966391;28;91908;-67
2023/09/17 07:03:26;;;;;;;1.10;1.02;;;21.20;99.90;21.70;100631.00;;;;4967555;28;122307;-67
2023/09/17 07:05:52;;;;;;;2.60;1.50;;;21.50;99.90;21.90;100637.00;;;;4969177;28;123307;-67
2023/09/17 07:08:18;;;;;;;1.70;1.15;;;21.70;99.90;22.20;100634.00;;;;4969118;28;108848;-67
2023/09/17 07:10:44;;;;;;;1.55;1.30;;;22.00;99.90;22.50;100636.00;;;;4971363;28;108928;-68
2023/09/17 07:13:11;;;;;;;1.27;1.17;;;22.20;99.90;22.80;100637.00;;;;4947761;28;95774;-69
2023/09/17 07:15:37;;;;;;;1.55;1.30;;;22.50;99.90;23.00;100636.00;;;;4965069;28;120685;-68
2023/09/17 07:18:03;;;;;;;1.55;1.30;;;22.80;99.90;23.30;100634.00;;;;4947816;28;109012;-67
2023/09/17 07:20:29;;;;;;;1.95;1.50;;;23.10;99.90;23.70;100641.00;;;;4939186;28;93125;-67
2023/09/17 07:22:54;;;;;;;1.75;1.13;;;23.30;99.90;24.00;100640.00;;;;4969708;28;103541;-67
2023/09/17 07:25:20;;;;;;;1.58;1.48;;;23.70;99.30;24.20;100638.00;;;;4951675;28;92376;-67
2023/09/17 07:27:46;;;;;;;3.75;1.70;;;24.00;98.60;24.40;100648.00;;;;4965250;28;93111;-67
2023/09/17 07:30:12;;;;;;;1.23;0.93;;;24.20;97.70;24.70;100644.00;;;;4967523;28;92993;-67
2023/09/17 07:32:38;;;;;;;1.55;1.45;;;24.40;97.30;24.90;100646.00;;;;4968067;28;95064;-66
2023/09/17 07:35:05;;;;;;;1.25;1.00;;;24.70;96.70;25.20;100644.00;;;;4966945;28;93385;-67
2023/09/17 07:37:30;;;;;;;1.55;1.40;;;24.90;95.80;25.40;100649.00;;;;4967833;28;92834;-66
2023/09/17 07:40:01;;;;;;;2.08;1.13;;;25.10;95.10;25.50;100643.00;;;;4968437;28;93338;-67
2023/09/17 07:42:27;;;;;;;1.30;1.17;;;25.30;94.40;25.60;100638.00;;;;4951473;28;94427;-67
2023/09/17 07:44:53;;;;;;;1.95;1.15;;;25.40;93.90;25.70;100644.00;;;;4967770;28;92624;-68
2023/09/17 07:47:19;;;;;;;1.40;1.15;;;25.50;93.00;25.80;100641.00;;;;4966696;28;92787;-68
2023/09/17 07:49:45;;;;;;;1.52;1.20;;;25.60;92.80;25.90;100648.00;;;;4967817;28;92132;-67
2023/09/17 07:52:12;;;;;;;1.63;1.23;;;25.70;92.50;26.00;100654.00;;;;4966513;28;92849;-67
2023/09/17 07:54:39;;;;;;;1.98;1.48;;;25.80;91.70;26.10;100657.00;;;;4951924;28;93493;-66
2023/09/17 07:57:07;;;;;;;3.50;1.42;;;25.90;91.40;26.30;100655.00;;;;4964480;28;98186;-66
2023/09/17 07:59:32;;;;;;;3.63;1.00;;;26.00;91.00;26.40;100646.00;;;;4968861;28;92874;-68
2023/09/17 08:01:59;;;;;;;1.65;0.98;;;26.10;90.80;26.50;100650.00;;;;4964250;28;122551;-67
2023/09/17 08:04:27;;;;;;;1.40;1.20;;;26.30;89.90;26.60;100646.00;;;;4966046;28;92888;-67
2023/09/17 08:06:53;;;;;;;1.88;1.65;;;26.40;88.90;26.50;100645.00;;;;4963883;28;111694;-67
2023/09/17 08:09:18;;;;;;;1.67;1.58;;;26.40;88.10;26.50;100648.00;;;;4965381;28;105799;-67
2023/09/17 08:11:44;;;;;;;1.67;1.48;;;26.40;87.20;26.50;100643.00;;;;4967780;28;108250;-67
2023/09/17 08:14:10;;;;;;;2.05;1.25;;;26.30;86.40;26.40;100650.00;;;;4964634;28;122458;-66
2023/09/17 08:16:37;;;;;;;1.90;1.40;;;26.30;85.70;26.30;100649.00;;;;4967523;28;92948;-67
2023/09/17 08:19:03;;;;;;;1.55;1.30;;;26.20;85.30;26.20;100650.00;;;;4968574;28;92997;-67
2023/09/17 08:21:29;;;;;;;2.58;1.42;;;26.10;85.10;26.20;100651.00;;;;4966472;28;107504;-67
2023/09/17 08:23:55;;;;;;;1.33;1.23;;;26.00;84.90;26.10;100656.00;;;;4971280;28;111733;-67
2023/09/17 08:26:22;;;;;;;1.73;1.35;;;25.90;85.00;26.00;100655.00;;;;4969777;28;93538;-66
2023/09/17 08:28:51;;;;;;;1.70;1.15;;;25.80;85.10;25.90;100654.00;;;;4972298;27;92922;-67
2023/09/17 08:31:16;;;;;;;2.03;1.45;;;25.80;85.30;25.90;100655.00;;;;4971571;28;94519;-66
2023/09/17 08:33:45;;;;;;;1.30;1.20;;;25.80;85.40;25.90;100658.00;;;;4986450;27;121449;-66
2023/09/17 08:36:11;;;;;;;1.98;1.48;;;25.70;85.30;26.00;100653.00;;;;4986429;27;93245;-66
2023/09/17 08:38:37;;;;;;;1.85;1.55;;;25.80;85.20;26.20;100660.00;;;;4989660;27;92273;-67
2023/09/17 08:41:06;;;;;;;2.28;1.60;;;25.80;84.90;26.50;100667.00;;;;4985908;27;93087;-67
2023/09/17 08:43:33;;;;;;;2.22;2.03;;;26.10;83.80;26.70;100666.00;;;;4984243;27;93301;-67
2023/09/17 08:46:03;;;;;;;2.10;1.25;;;26.40;82.20;26.80;100667.00;;;;4966998;28;93984;-66
2023/09/17 08:48:29;;;;;;;1.73;1.40;;;26.50;81.00;26.90;100676.00;;;;4989385;27;92956;-65
2023/09/17 08:50:58;;;;;;;2.47;1.35;;;26.70;80.70;27.10;100667.00;;;;4986972;27;93656;-66
2023/09/17 08:53:31;;;;;;;2.00;1.55;;;26.80;80.30;27.30;100658.00;;;;4990513;27;93481;-65
2023/09/17 08:55:59;;;;;;;1.55;1.33;;;26.90;80.20;27.60;100650.00;;;;4985011;27;93048;-65
2023/09/17 08:58:40;;;;;;;2.25;1.58;;;27.20;79.60;27.90;100657.00;;;;4987040;27;93137;-65
2023/09/17 09:01:11;;;;;;;2.13;1.92;;;27.50;78.20;28.30;100671.00;;;;4983028;27;94212;-65
2023/09/17 09:03:38;;;;;;;1.55;1.45;;;27.80;77.70;28.70;100676.00;;;;4985145;27;92537;-67
2023/09/17 09:06:04;;;;;;;5.65;2.00;;;28.20;77.30;29.10;100673.00;;;;4967699;28;110614;-67
2023/09/17 09:08:34;;;;;;;3.92;1.52;;;28.60;76.50;29.50;100669.00;;;;4993309;27;92823;-67
2023/09/17 09:11:00;;;;;;;1.65;1.05;;;29.00;74.40;29.80;100671.00;;;;4987575;27;94399;-67
2023/09/17 09:13:27;;;;;;;4.10;2.05;;;29.20;72.60;30.10;100672.00;;;;4973230;28;101088;-68
2023/09/17 09:15:53;;;;;;;1.45;1.17;;;29.50;71.90;30.50;100676.00;;;;4953639;28;93112;-69
2023/09/17 09:18:19;;;;;;;2.80;1.45;;;29.90;70.70;30.80;100664.00;;;;4984978;27;92845;-69
2023/09/17 09:20:45;;;;;;;1.67;1.55;;;30.20;69.50;31.30;100666.00;;;;4967292;28;107975;-69
2023/09/17 09:23:11;;;;;;;7.22;1.42;;;30.60;68.20;31.70;100664.00;;;;4987638;27;123321;-69
2023/09/17 09:25:37;;;;;;;2.45;1.52;;;31.00;66.30;32.10;100661.00;;;;4972241;28;92940;-69
2023/09/17 09:28:03;;;;;;;2.22;1.38;;;31.30;64.90;32.50;100667.00;;;;4986618;28;96282;-69
2023/09/17 09:30:29;;;;;;;2.30;1.60;;;31.70;63.90;32.90;100667.00;;;;4984742;27;112756;-70
2023/09/17 09:32:56;;;;;;;1.42;1.33;;;32.20;62.00;33.30;100657.00;;;;4950651;28;92786;-69
2023/09/17 09:35:23;;;;;;;1.33;1.23;;;32.60;60.50;33.50;100658.00;;;;4952042;27;94219;-67
2023/09/17 09:37:51;;;;;;;3.47;1.25;;;32.90;58.80;33.80;100661.00;;;;4988876;27;97529;-67
2023/09/17 09:40:17;;;;;;;1.13;1.02;;;33.10;55.50;33.80;100661.00;;;;4985285;27;92847;-67
2023/09/17 09:42:43;;;;;;;1.35;1.13;;;33.30;55.10;33.90;100655.00;;;;4986909;27;93041;-68
2023/09/17 09:45:15;;;;;;;1.42;1.00;;;34.00;53.60;33.70;100645.00;;;;4986551;27;92985;-68
2023/09/17 09:47:47;;;;;;;1.75;0.98;;;33.20;51.60;33.50;100655.00;;;;4986053;27;93331;-68
2023/09/17 09:50:27;;;;;;;2.05;1.42;;;33.00;52.00;33.60;100646.00;;;;4986719;27;92804;-68
2023/09/17 09:52:54;;;;;;;1.30;1.20;;;33.00;52.40;33.90;100651.00;;;;4983520;27;96638;-68
2023/09/17 09:55:27;;;;;;;2.53;1.15;;;33.10;52.40;34.20;100651.00;;;;4954931;28;92814;-68
2023/09/17 09:57:53;;;;;;;1.20;1.10;;;33.30;52.40;34.50;100653.00;;;;4967419;28;93016;-68
2023/09/17 10:00:29;;;;;;;3.35;1.45;;;33.60;51.80;34.60;100654.00;;;;4966769;27;126164;-69
2023/09/17 10:02:55;;;;;;;1.20;1.02;;;33.80;51.30;34.40;100655.00;;;;4966414;27;94517;-69
2023/09/17 10:05:39;;;;;;;1.85;1.05;;;33.80;49.80;34.30;100652.00;;;;4985410;27;92773;-67
2023/09/17 10:08:08;;;;;;;1.70;1.20;;;33.70;49.60;34.30;100647.00;;;;4985678;27;92688;-68
2023/09/17 10:10:36;;;;;;;5.38;1.10;;;33.60;49.30;34.20;100655.00;;;;4946728;28;95124;-68
2023/09/17 10:13:05;;;;;;;1.45;1.27;;;33.50;48.80;34.00;100653.00;;;;4987075;27;93558;-68
2023/09/17 10:15:34;;;;;;;1.20;1.08;;;33.40;48.40;33.90;100649.00;;;;4990407;28;92871;-67
2023/09/17 10:18:01;;;;;;;1.80;1.35;;;33.30;48.40;33.70;100654.00;;;;4971112;27;102976;-67
2023/09/17 10:20:28;;;;;;;1.25;1.00;;;33.10;48.10;33.70;100650.00;;;;4988247;27;93110;-68
2023/09/17 10:22:55;;;;;;;2.28;1.42;;;33.10;48.80;33.80;100642.00;;;;4971670;28;94947;-68
2023/09/17 10:25:23;;;;;;;1.35;1.02;;;33.20;48.40;34.10;100646.00;;;;4975569;28;93736;-68
2023/09/17 10:27:52;;;;;;;1.95;1.25;;;33.30;48.40;34.30;100653.00;;;;4989060;28;92916;-68
2023/09/17 10:30:18;;;;;;;1.60;1.15;;;33.60;48.40;34.60;100652.00;;;;4987378;27;93586;-68
2023/09/17 10:32:47;;;;;;;2.03;1.10;;;33.80;47.80;35.00;100655.00;;;;4977114;28;92611;-67
2023/09/17 10:35:14;;;;;;;1.63;1.33;;;34.20;48.00;35.40;100653.00;;;;4987114;27;92554;-70
2023/09/17 10:37:40;;;;;;;2.42;1.50;;;34.50;48.20;35.90;100649.00;;;;4956537;28;93179;-68
2023/09/17 10:40:09;;;;;;;1.55;1.17;;;35.00;48.20;36.30;100645.00;;;;4988421;27;123100;-68
2023/09/17 10:42:38;;;;;;;2.60;1.38;;;35.40;47.60;36.70;100651.00;;;;4993805;27;94238;-69
2023/09/17 10:45:10;;;;;;;1.38;0.80;;;35.70;47.20;37.00;100643.00;;;;4988372;27;92902;-70